sensor_id;sensor_type;location;lat;lon;timestamp;pressure;altitude;pressure_sealevel;temperature;humidity
17873;BME280;36318;42.620;23.338;2023-02-13T00:01:04;94575.16;;;-2.32;100.00
17873;BME280;36318;42.620;23.338;2023-02-13T00:03:31;94567.53;;;-2.34;100.00
17873;BME280;36318;42.620;23.338;2023-02-13T00:05:59;94568.38;;;-2.30;100.00
17873;BME280;36318;42.620;23.338;2023-02-13T00:08:25;94567.47;;;-2.26;100.00
17873;BME280;36318;42.620;23.338;2023-02-13T00:10:52;94574.28;;;-2.28;100.00
17873;BME280;36318;42.620;23.338;2023-02-13T00:13:18;94581.97;;;-2.37;100.00
17873;BME280;36318;42.620;23.338;2023-02-13T00:15:45;94577.81;;;-2.45;100.00
17873;BME280;36318;42.620;23.338;2023-02-13T00:18:20;94571.88;;;-2.47;100.00
17873;BME280;36318;42.620;23.338;2023-02-13T00:20:55;94573.56;;;-2.49;100.00
17873;BME280;36318;42.620;23.338;2023-02-13T00:23:23;94584.63;;;-2.53;100.00
17873;BME280;36318;42.620;23.338;2023-02-13T00:25:49;94588.88;;;-2.56;100.00
17873;BME280;36318;42.620;23.338;2023-02-13T00:28:16;94593.13;;;-2.57;100.00
17873;BME280;36318;42.620;23.338;2023-02-13T00:30:42;94592.31;;;-2.65;100.00
17873;BME280;36318;42.620;23.338;2023-02-13T00:33:09;94588.94;;;-2.61;100.00
17873;BME280;36318;42.620;23.338;2023-02-13T00:35:36;94590.66;;;-2.67;100.00
17873;BME280;36318;42.620;23.338;2023-02-13T00:38:02;94590.63;;;-2.64;100.00
17873;BME280;36318;42.620;23.338;2023-02-13T00:40:30;94592.28;;;-2.56;100.00
17873;BME280;36318;42.620;23.338;2023-02-13T00:42:57;94584.63;;;-2.53;100.00
17873;BME280;36318;42.620;23.338;2023-02-13T00:45:23;94584.66;;;-2.54;100.00
17873;BME280;36318;42.620;23.338;2023-02-13T00:47:50;94593.97;;;-2.52;100.00
17873;BME280;36318;42.620;23.338;2023-02-13T00:50:17;94596.41;;;-2.43;100.00
17873;BME280;36318;42.620;23.338;2023-02-13T00:52:43;94590.47;;;-2.43;100.00
17873;BME280;36318;42.620;23.338;2023-02-13T00:55:10;94591.34;;;-2.44;100.00
17873;BME280;36318;42.620;23.338;2023-02-13T00:57:38;94594.72;;;-2.42;100.00
17873;BME280;36318;42.620;23.338;2023-02-13T01:00:05;94589.63;;;-2.39;100.00
17873;BME280;36318;42.620;23.338;2023-02-13T01:02:31;94598.06;;;-2.37;100.00
17873;BME280;36318;42.620;23.338;2023-02-13T01:05:00;94600.66;;;-2.43;100.00
17873;BME280;36318;42.620;23.338;2023-02-13T01:07:26;94600.69;;;-2.48;100.00
17873;BME280;36318;42.620;23.338;2023-02-13T01:09:53;94599.03;;;-2.52;100.00
17873;BME280;36318;42.620;23.338;2023-02-13T01:12:19;94598.22;;;-2.55;100.00
17873;BME280;36318;42.620;23.338;2023-02-13T01:14:47;94593.19;;;-2.63;100.00
17873;BME280;36318;42.620;23.338;2023-02-13T01:17:15;94590.63;;;-2.64;100.00
17873;BME280;36318;42.620;23.338;2023-02-13T01:19:41;94593.22;;;-2.70;100.00
17873;BME280;36318;42.620;23.338;2023-02-13T01:22:08;94593.28;;;-2.76;100.00
17873;BME280;36318;42.620;23.338;2023-02-13T01:24:34;94592.44;;;-2.80;100.00
17873;BME280;36318;42.620;23.338;2023-02-13T01:27:01;94601.69;;;-2.73;100.00
17873;BME280;36318;42.620;23.338;2023-02-13T01:29:28;94597.56;;;-2.84;100.00
17873;BME280;36318;42.620;23.338;2023-02-13T01:31:56;94601.78;;;-2.88;100.00
17873;BME280;36318;42.620;23.338;2023-02-13T01:34:23;94598.41;;;-2.85;100.00
17873;BME280;36318;42.620;23.338;2023-02-13T01:36:50;94605.16;;;-2.83;100.00
17873;BME280;36318;42.620;23.338;2023-02-13T01:39:16;94608.56;;;-2.84;100.00
17873;BME280;36318;42.620;23.338;2023-02-13T01:41:43;94611.91;;;-2.80;100.00
17873;BME280;36318;42.620;23.338;2023-02-13T01:46:55;94615.13;;;-2.50;100.00
17873;BME280;36318;42.620;23.338;2023-02-13T01:49:22;94610.88;;;-2.54;100.00
17873;BME280;36318;42.620;23.338;2023-02-13T01:51:51;94605.78;;;-2.51;100.00
17873;BME280;36318;42.620;23.338;2023-02-13T01:54:20;94606.56;;;-2.39;100.00
17873;BME280;36318;42.620;23.338;2023-02-13T01:56:50;94607.34;;;-2.31;100.00
17873;BME280;36318;42.620;23.338;2023-02-13T01:59:20;94613.25;;;-2.29;100.00
17873;BME280;36318;42.620;23.338;2023-02-13T02:01:48;94533.16;;;-2.79;100.00
17873;BME280;36318;42.620;23.338;2023-02-13T02:04:17;94610.75;;;-2.31;100.00
17873;BME280;36318;42.620;23.338;2023-02-13T02:06:48;94614.91;;;-2.22;100.00
17873;BME280;36318;42.620;23.338;2023-02-13T02:09:18;94611.47;;;-2.15;100.00
17873;BME280;36318;42.620;23.338;2023-02-13T02:11:47;94610.50;;;-2.02;100.00
17873;BME280;36318;42.620;23.338;2023-02-13T02:14:16;94604.53;;;-1.98;100.00
17873;BME280;36318;42.620;23.338;2023-02-13T02:16:43;94598.53;;;-1.91;100.00
17873;BME280;36318;42.620;23.338;2023-02-13T02:19:12;94600.19;;;-1.87;100.00
17873;BME280;36318;42.620;23.338;2023-02-13T02:21:47;94593.38;;;-1.82;100.00
17873;BME280;36318;42.620;23.338;2023-02-13T02:27:09;94594.19;;;-1.80;100.00
17873;BME280;36318;42.620;23.338;2023-02-13T02:29:54;94602.63;;;-1.75;100.00
17873;BME280;36318;42.620;23.338;2023-02-13T02:32:29;94596.63;;;-1.69;100.00
17873;BME280;36318;42.620;23.338;2023-02-13T02:35:04;94590.69;;;-1.68;100.00
17873;BME280;36318;42.620;23.338;2023-02-13T02:37:41;94590.69;;;-1.70;100.00
17873;BME280;36318;42.620;23.338;2023-02-13T02:40:10;94595.78;;;-1.68;100.00
17873;BME280;36318;42.620;23.338;2023-02-13T02:42:41;94599.22;;;-1.74;100.00
17873;BME280;36318;42.620;23.338;2023-02-13T02:45:15;94610.25;;;-1.75;100.00
17873;BME280;36318;42.620;23.338;2023-02-13T02:47:47;94605.97;;;-1.68;100.00
17873;BME280;36318;42.620;23.338;2023-02-13T02:50:34;94617.84;;;-1.72;100.00
17873;BME280;36318;42.620;23.338;2023-02-13T02:53:05;94618.69;;;-1.73;100.00
17873;BME280;36318;42.620;23.338;2023-02-13T02:55:35;94625.53;;;-1.76;100.00
17873;BME280;36318;42.620;23.338;2023-02-13T02:58:05;94627.06;;;-1.62;100.00
17873;BME280;36318;42.620;23.338;2023-02-13T03:00:52;94636.38;;;-1.59;100.00
17873;BME280;36318;42.620;23.338;2023-02-13T03:03:39;94627.84;;;-1.54;100.00
17873;BME280;36318;42.620;23.338;2023-02-13T03:06:24;94632.97;;;-1.55;100.00
17873;BME280;36318;42.620;23.338;2023-02-13T03:08:53;94628.59;;;-1.46;100.00
17873;BME280;36318;42.620;23.338;2023-02-13T03:11:38;94618.47;;;-1.47;100.00
17873;BME280;36318;42.620;23.338;2023-02-13T03:14:25;94622.66;;;-1.45;100.00
17873;BME280;36318;42.620;23.338;2023-02-13T03:16:53;94618.47;;;-1.47;100.00
17873;BME280;36318;42.620;23.338;2023-02-13T03:19:42;94623.53;;;-1.44;100.00
17873;BME280;36318;42.620;23.338;2023-02-13T03:22:31;94612.56;;;-1.52;100.00
17873;BME280;36318;42.620;23.338;2023-02-13T03:25:01;94616.81;;;-1.53;100.00
17873;BME280;36318;42.620;23.338;2023-02-13T03:27:33;94612.69;;;-1.64;100.00
17873;BME280;36318;42.620;23.338;2023-02-13T03:30:22;94621.13;;;-1.58;100.00
17873;BME280;36318;42.620;23.338;2023-02-13T03:32:55;94625.41;;;-1.64;100.00
17873;BME280;36318;42.620;23.338;2023-02-13T03:35:29;94622.81;;;-1.57;100.00
17873;BME280;36318;42.620;23.338;2023-02-13T03:38:19;94629.56;;;-1.56;100.00
17873;BME280;36318;42.620;23.338;2023-02-13T03:40:47;94636.34;;;-1.56;100.00
17873;BME280;36318;42.620;23.338;2023-02-13T03:43:35;94636.34;;;-1.55;100.00
17873;BME280;36318;42.620;23.338;2023-02-13T03:46:04;94629.53;;;-1.50;100.00
17873;BME280;36318;42.620;23.338;2023-02-13T03:48:31;94630.34;;;-1.48;100.00
17873;BME280;36318;42.620;23.338;2023-02-13T03:51:19;94620.19;;;-1.51;100.00
17873;BME280;36318;42.620;23.338;2023-02-13T03:53:48;94621.94;;;-1.54;100.00
17873;BME280;36318;42.620;23.338;2023-02-13T03:56:17;94619.38;;;-1.56;100.00
17873;BME280;36318;42.620;23.338;2023-02-13T03:59:03;94619.41;;;-1.59;100.00
17873;BME280;36318;42.620;23.338;2023-02-13T04:01:49;94619.38;;;-1.53;100.00
17873;BME280;36318;42.620;23.338;2023-02-13T04:04:20;94617.69;;;-1.55;100.00
17873;BME280;36318;42.620;23.338;2023-02-13T04:06:50;94612.66;;;-1.60;100.00
17873;BME280;36318;42.620;23.338;2023-02-13T04:09:20;94623.63;;;-1.56;100.00
17873;BME280;36318;42.620;23.338;2023-02-13T04:11:48;94621.16;;;-1.61;100.00
17873;BME280;36318;42.620;23.338;2023-02-13T04:14:19;94622.84;;;-1.61;100.00
17873;BME280;36318;42.620;23.338;2023-02-13T04:16:48;94621.13;;;-1.59;100.00
17873;BME280;36318;42.620;23.338;2023-02-13T04:19:16;94627.09;;;-1.63;100.00
17873;BME280;36318;42.620;23.338;2023-02-13T04:21:43;94634.75;;;-1.63;100.00
17873;BME280;36318;42.620;23.338;2023-02-13T04:24:11;94638.94;;;-1.59;100.00
17873;BME280;36318;42.620;23.338;2023-02-13T04:26:38;94632.16;;;-1.60;100.00
17873;BME280;36318;42.620;23.338;2023-02-13T04:29:06;94627.91;;;-1.57;100.00
17873;BME280;36318;42.620;23.338;2023-02-13T04:31:32;94635.56;;;-1.60;100.00
17873;BME280;36318;42.620;23.338;2023-02-13T04:33:59;94638.13;;;-1.60;100.00
17873;BME280;36318;42.620;23.338;2023-02-13T04:36:26;94630.47;;;-1.60;100.00
17873;BME280;36318;42.620;23.338;2023-02-13T04:38:52;94625.41;;;-1.63;100.00
17873;BME280;36318;42.620;23.338;2023-02-13T04:41:20;94621.13;;;-1.59;100.00
17873;BME280;36318;42.620;23.338;2023-02-13T04:43:47;94629.63;;;-1.60;100.00
17873;BME280;36318;42.620;23.338;2023-02-13T04:46:16;94619.47;;;-1.65;100.00
17873;BME280;36318;42.620;23.338;2023-02-13T04:48:43;94615.25;;;-1.66;100.00
17873;BME280;36318;42.620;23.338;2023-02-13T04:51:09;94624.63;;;-1.68;100.00
17873;BME280;36318;42.620;23.338;2023-02-13T04:53:36;94629.72;;;-1.68;100.00
17873;BME280;36318;42.620;23.338;2023-02-13T04:56:03;94633.13;;;-1.72;100.00
17873;BME280;36318;42.620;23.338;2023-02-13T04:58:31;94634.84;;;-1.74;100.00
17873;BME280;36318;42.620;23.338;2023-02-13T05:00:57;94639.03;;;-1.68;100.00
17873;BME280;36318;42.620;23.338;2023-02-13T05:03:24;94643.28;;;-1.69;100.00
17873;BME280;36318;42.620;23.338;2023-02-13T05:05:51;94649.16;;;-1.64;100.00
17873;BME280;36318;42.620;23.338;2023-02-13T05:08:18;94645.75;;;-1.61;100.00
17873;BME280;36318;42.620;23.338;2023-02-13T05:10:44;94648.28;;;-1.57;100.00
17873;BME280;36318;42.620;23.338;2023-02-13T05:13:11;94653.31;;;-1.52;100.00
17873;BME280;36318;42.620;23.338;2023-02-13T05:15:39;94649.06;;;-1.53;100.00
17873;BME280;36318;42.620;23.338;2023-02-13T05:18:06;94652.44;;;-1.50;100.00
17873;BME280;36318;42.620;23.338;2023-02-13T05:20:32;94651.53;;;-1.44;100.00
17873;BME280;36318;42.620;23.338;2023-02-13T05:22:59;94648.94;;;-1.41;100.00
17873;BME280;36318;42.620;23.338;2023-02-13T05:25:43;94654.84;;;-1.38;100.00
17873;BME280;36318;42.620;23.338;2023-02-13T05:28:09;94652.31;;;-1.39;100.00
17873;BME280;36318;42.620;23.338;2023-02-13T05:30:51;94659.97;;;-1.39;100.00
17873;BME280;36318;42.620;23.338;2023-02-13T05:33:18;94654.78;;;-1.32;100.00
17873;BME280;36318;42.620;23.338;2023-02-13T05:35:45;94658.19;;;-1.33;100.00
17873;BME280;36318;42.620;23.338;2023-02-13T05:38:11;94655.59;;;-1.30;100.00
17873;BME280;36318;42.620;23.338;2023-02-13T05:40:38;94658.97;;;-1.25;100.00
17873;BME280;36318;42.620;23.338;2023-02-13T05:43:04;94659.81;;;-1.26;100.00
17873;BME280;36318;42.620;23.338;2023-02-13T05:45:31;94659.78;;;-1.23;100.00
17873;BME280;36318;42.620;23.338;2023-02-13T05:47:59;94663.19;;;-1.24;100.00
17873;BME280;36318;42.620;23.338;2023-02-13T05:50:25;94666.53;;;-1.22;100.00
17873;BME280;36318;42.620;23.338;2023-02-13T05:52:52;94669.09;;;-1.22;100.00
17873;BME280;36318;42.620;23.338;2023-02-13T05:55:19;94667.38;;;-1.18;100.00
17873;BME280;36318;42.620;23.338;2023-02-13T05:57:46;94673.34;;;-1.19;100.00
17873;BME280;36318;42.620;23.338;2023-02-13T06:00:13;94681.81;;;-1.17;100.00
17873;BME280;36318;42.620;23.338;2023-02-13T06:02:40;94680.88;;;-1.08;100.00
17873;BME280;36318;42.620;23.338;2023-02-13T06:05:08;94681.50;;;-0.91;100.00
17873;BME280;36318;42.620;23.338;2023-02-13T06:07:34;94680.59;;;-0.86;100.00
17873;BME280;36318;42.620;23.338;2023-02-13T06:10:04;94685.72;;;-0.87;100.00
17873;BME280;36318;42.620;23.338;2023-02-13T06:12:31;94683.16;;;-0.89;100.00
17873;BME280;36318;42.620;23.338;2023-02-13T06:14:57;94687.44;;;-0.89;100.00
17873;BME280;36318;42.620;23.338;2023-02-13T06:17:24;94691.69;;;-0.91;100.00
17873;BME280;36318;42.620;23.338;2023-02-13T06:19:50;94687.47;;;-0.92;100.00
17873;BME280;36318;42.620;23.338;2023-02-13T06:22:18;94686.53;;;-0.85;100.00
17873;BME280;36318;42.620;23.338;2023-02-13T06:24:45;94693.22;;;-0.78;100.00
17873;BME280;36318;42.620;23.338;2023-02-13T06:27:11;94690.69;;;-0.78;100.00
17873;BME280;36318;42.620;23.338;2023-02-13T06:29:38;94696.56;;;-0.72;100.00
17873;BME280;36318;42.620;23.338;2023-02-13T06:32:05;94692.25;;;-0.65;100.00
17873;BME280;36318;42.620;23.338;2023-02-13T06:34:31;94698.13;;;-0.60;100.00
17873;BME280;36318;42.620;23.338;2023-02-13T06:36:58;94700.63;;;-0.57;100.00
17873;BME280;36318;42.620;23.338;2023-02-13T06:39:26;94700.53;;;-0.49;100.00
17873;BME280;36318;42.620;23.338;2023-02-13T06:41:52;94701.28;;;-0.43;100.00
17873;BME280;36318;42.620;23.338;2023-02-13T06:44:19;94696.94;;;-0.35;100.00
17873;BME280;36318;42.620;23.338;2023-02-13T06:46:45;94701.94;;;-0.27;100.00
17873;BME280;36318;42.620;23.338;2023-02-13T06:49:12;94705.31;;;-0.27;100.00
17873;BME280;36318;42.620;23.338;2023-02-13T06:51:38;94704.38;;;-0.20;100.00
17873;BME280;36318;42.620;23.338;2023-02-13T06:54:05;94705.16;;;-0.15;100.00
17873;BME280;36318;42.620;23.338;2023-02-13T06:56:33;94701.69;;;-0.11;100.00
17873;BME280;36318;42.620;23.338;2023-02-13T06:58:59;94700.78;;;-0.07;100.00
17873;BME280;36318;42.620;23.338;2023-02-13T07:01:26;94704.13;;;0.00;100.00
17873;BME280;36318;42.620;23.338;2023-02-13T07:03:53;94703.13;;;0.09;100.00
17873;BME280;36318;42.620;23.338;2023-02-13T07:06:19;94697.00;;;0.20;100.00
17873;BME280;36318;42.620;23.338;2023-02-13T07:08:46;94696.84;;;0.29;100.00
17873;BME280;36318;42.620;23.338;2023-02-13T07:11:16;94692.34;;;0.45;100.00
17873;BME280;36318;42.620;23.338;2023-02-13T07:13:44;94694.66;;;0.57;100.00
17873;BME280;36318;42.620;23.338;2023-02-13T07:16:10;94693.00;;;0.54;100.00
17873;BME280;36318;42.620;23.338;2023-02-13T07:18:37;94692.13;;;0.57;100.00
17873;BME280;36318;42.620;23.338;2023-02-13T07:21:04;94709.41;;;0.43;100.00
17873;BME280;36318;42.620;23.338;2023-02-13T07:23:30;94711.91;;;0.46;100.00
17873;BME280;36318;42.620;23.338;2023-02-13T07:25:57;94712.72;;;0.48;100.00
17873;BME280;36318;42.620;23.338;2023-02-13T07:28:24;94718.59;;;0.53;100.00
17873;BME280;36318;42.620;23.338;2023-02-13T07:30:52;94724.38;;;0.64;100.00
17873;BME280;36318;42.620;23.338;2023-02-13T07:33:19;94721.66;;;0.73;100.00
17873;BME280;36318;42.620;23.338;2023-02-13T07:35:46;94720.97;;;0.64;100.00
17873;BME280;36318;42.620;23.338;2023-02-13T07:38:13;94726.22;;;0.54;100.00
17873;BME280;36318;42.620;23.338;2023-02-13T07:40:40;94732.09;;;0.59;100.00
17873;BME280;36318;42.620;23.338;2023-02-13T07:43:06;94737.81;;;0.74;100.00
17873;BME280;36318;42.620;23.338;2023-02-13T07:45:33;94722.25;;;0.89;100.00
17873;BME280;36318;42.620;23.338;2023-02-13T07:48:01;94715.69;;;0.74;100.00
17873;BME280;36318;42.620;23.338;2023-02-13T07:50:27;94722.19;;;0.92;100.00
17873;BME280;36318;42.620;23.338;2023-02-13T07:52:55;94726.22;;;1.03;100.00
17873;BME280;36318;42.620;23.338;2023-02-13T07:55:22;94724.25;;;1.17;100.00
17873;BME280;36318;42.620;23.338;2023-02-13T07:57:48;94722.28;;;1.32;100.00
17873;BME280;36318;42.620;23.338;2023-02-13T08:00:16;94723.25;;;1.25;100.00
17873;BME280;36318;42.620;23.338;2023-02-13T08:02:42;94721.50;;;1.30;100.00
17873;BME280;36318;42.620;23.338;2023-02-13T08:05:10;94723.19;;;1.29;100.00
17873;BME280;36318;42.620;23.338;2023-02-13T08:07:37;94727.25;;;1.39;100.00
17873;BME280;36318;42.620;23.338;2023-02-13T08:10:05;94728.84;;;1.45;100.00
17873;BME280;36318;42.620;23.338;2023-02-13T08:12:49;94725.22;;;1.55;100.00
17873;BME280;36318;42.620;23.338;2023-02-13T08:15:16;94721.63;;;1.65;100.00
17873;BME280;36318;42.620;23.338;2023-02-13T08:17:43;94727.34;;;1.77;100.00
17873;BME280;36318;42.620;23.338;2023-02-13T08:20:11;94729.59;;;1.91;100.00
17873;BME280;36318;42.620;23.338;2023-02-13T08:22:38;94728.47;;;2.04;100.00
17873;BME280;36318;42.620;23.338;2023-02-13T08:25:05;94725.00;;;2.07;100.00
17873;BME280;36318;42.620;23.338;2023-02-13T08:27:32;94730.97;;;2.07;100.00
17873;BME280;36318;42.620;23.338;2023-02-13T08:29:58;94730.59;;;2.24;100.00
17873;BME280;36318;42.620;23.338;2023-02-13T08:32:26;94729.25;;;2.06;100.00
17873;BME280;36318;42.620;23.338;2023-02-13T08:34:52;94723.16;;;2.12;100.00
17873;BME280;36318;42.620;23.338;2023-02-13T08:37:20;94728.03;;;2.22;100.00
17873;BME280;36318;42.620;23.338;2023-02-13T08:39:47;94734.75;;;2.29;100.00
17873;BME280;36318;42.620;23.338;2023-02-13T08:42:13;94730.28;;;2.37;100.00
17873;BME280;36318;42.620;23.338;2023-02-13T08:44:40;94735.47;;;2.34;100.00
17873;BME280;36318;42.620;23.338;2023-02-13T08:47:06;94728.59;;;2.36;100.00
17873;BME280;36318;42.620;23.338;2023-02-13T08:49:33;94733.50;;;2.46;100.00
17873;BME280;36318;42.620;23.338;2023-02-13T08:52:00;94731.63;;;2.52;100.00
17873;BME280;36318;42.620;23.338;2023-02-13T08:54:29;94740.22;;;2.50;100.00
17873;BME280;36318;42.620;23.338;2023-02-13T08:56:55;94738.31;;;2.58;100.00
17873;BME280;36318;42.620;23.338;2023-02-13T08:59:22;94744.63;;;2.45;100.00
17873;BME280;36318;42.620;23.338;2023-02-13T09:01:49;94742.59;;;2.59;100.00
17873;BME280;36318;42.620;23.338;2023-02-13T09:04:15;94735.63;;;2.64;100.00
17873;BME280;36318;42.620;23.338;2023-02-13T09:06:43;94726.50;;;2.87;100.00
17873;BME280;36318;42.620;23.338;2023-02-13T09:09:10;94727.94;;;2.97;100.00
17873;BME280;36318;42.620;23.338;2023-02-13T09:11:38;94726.47;;;2.89;100.00
17873;BME280;36318;42.620;23.338;2023-02-13T09:14:04;94735.47;;;3.03;100.00
17873;BME280;36318;42.620;23.338;2023-02-13T09:16:31;94735.75;;;3.25;100.00
17873;BME280;36318;42.620;23.338;2023-02-13T09:18:58;94740.31;;;3.14;100.00
17873;BME280;36318;42.620;23.338;2023-02-13T09:21:24;94736.31;;;3.36;100.00
17873;BME280;36318;42.620;23.338;2023-02-13T09:23:51;94727.47;;;3.48;100.00
17873;BME280;36318;42.620;23.338;2023-02-13T09:26:19;94726.84;;;3.06;100.00
17873;BME280;36318;42.620;23.338;2023-02-13T09:28:47;94730.38;;;2.68;100.00
17873;BME280;36318;42.620;23.338;2023-02-13T09:31:14;94717.22;;;4.06;100.00
17873;BME280;36318;42.620;23.338;2023-02-13T09:33:41;94722.19;;;6.15;100.00
17873;BME280;36318;42.620;23.338;2023-02-13T09:36:08;94713.31;;;8.26;84.46
17873;BME280;36318;42.620;23.338;2023-02-13T09:38:35;94710.28;;;8.73;74.85
17873;BME280;36318;42.620;23.338;2023-02-13T09:41:04;94705.91;;;8.92;73.06
17873;BME280;36318;42.620;23.338;2023-02-13T09:43:33;94708.22;;;10.48;71.43
17873;BME280;36318;42.620;23.338;2023-02-13T09:46:03;94689.53;;;11.77;65.29
17873;BME280;36318;42.620;23.338;2023-02-13T09:48:33;94692.09;;;11.04;59.31
17873;BME280;36318;42.620;23.338;2023-02-13T09:51:02;94685.09;;;12.22;57.66
17873;BME280;36318;42.620;23.338;2023-02-13T09:53:29;94683.84;;;12.41;55.40
17873;BME280;36318;42.620;23.338;2023-02-13T09:55:59;94688.19;;;12.55;53.97
17873;BME280;36318;42.620;23.338;2023-02-13T09:58:38;94675.75;;;12.87;52.52
17873;BME280;36318;42.620;23.338;2023-02-13T10:01:15;94668.25;;;14.11;50.53
17873;BME280;36318;42.620;23.338;2023-02-13T10:03:43;94657.94;;;15.42;48.25
17873;BME280;36318;42.620;23.338;2023-02-13T10:06:13;94657.59;;;15.82;46.93
17873;BME280;36318;42.620;23.338;2023-02-13T10:08:48;94659.63;;;15.43;46.98
17873;BME280;36318;42.620;23.338;2023-02-13T10:11:27;94652.78;;;15.30;46.94
17873;BME280;36318;42.620;23.338;2023-02-13T10:13:58;94648.09;;;16.14;44.84
17873;BME280;36318;42.620;23.338;2023-02-13T10:16:29;94656.38;;;15.75;44.89
17873;BME280;36318;42.620;23.338;2023-02-13T10:18:59;94643.31;;;16.86;44.03
17873;BME280;36318;42.620;23.338;2023-02-13T10:21:28;94635.66;;;17.57;42.33
17873;BME280;36318;42.620;23.338;2023-02-13T10:23:57;94634.09;;;17.34;42.84
17873;BME280;36318;42.620;23.338;2023-02-13T10:26:25;94629.91;;;18.05;41.32
17873;BME280;36318;42.620;23.338;2023-02-13T10:29:07;94623.66;;;17.75;41.21
17873;BME280;36318;42.620;23.338;2023-02-13T10:31:53;94618.16;;;18.39;40.83
17873;BME280;36318;42.620;23.338;2023-02-13T10:34:23;94617.94;;;17.18;41.59
17873;BME280;36318;42.620;23.338;2023-02-13T10:36:51;94616.22;;;17.80;41.18
17873;BME280;36318;42.620;23.338;2023-02-13T10:39:21;94608.56;;;18.49;40.34
17873;BME280;36318;42.620;23.338;2023-02-13T10:41:49;94607.38;;;18.42;39.97
17873;BME280;36318;42.620;23.338;2023-02-13T10:44:21;94607.28;;;17.51;40.96
17873;BME280;36318;42.620;23.338;2023-02-13T10:46:57;94604.78;;;17.29;41.40
17873;BME280;36318;42.620;23.338;2023-02-13T10:49:32;94600.94;;;16.47;42.59
17873;BME280;36318;42.620;23.338;2023-02-13T10:52:06;94607.16;;;15.45;44.25
17873;BME280;36318;42.620;23.338;2023-02-13T10:54:42;94599.47;;;13.74;45.71
17873;BME280;36318;42.620;23.338;2023-02-13T10:57:15;94613.88;;;12.76;49.51
17873;BME280;36318;42.620;23.338;2023-02-13T10:59:51;94604.47;;;12.34;50.05
17873;BME280;36318;42.620;23.338;2023-02-13T11:02:24;94611.28;;;12.09;50.93
17873;BME280;36318;42.620;23.338;2023-02-13T11:04:52;94605.53;;;12.04;51.10
17873;BME280;36318;42.620;23.338;2023-02-13T11:07:23;94600.34;;;11.75;51.92
17873;BME280;36318;42.620;23.338;2023-02-13T11:09:50;94604.34;;;11.81;51.91
17873;BME280;36318;42.620;23.338;2023-02-13T11:12:22;94599.16;;;10.63;53.30
17873;BME280;36318;42.620;23.338;2023-02-13T11:14:52;94596.13;;;10.87;53.58
17873;BME280;36318;42.620;23.338;2023-02-13T11:17:19;94588.00;;;11.07;54.00
17873;BME280;36318;42.620;23.338;2023-02-13T11:19:48;94595.03;;;11.05;54.11
17873;BME280;36318;42.620;23.338;2023-02-13T11:22:25;94590.63;;;10.61;53.85
17873;BME280;36318;42.620;23.338;2023-02-13T11:24:54;94577.53;;;10.33;55.77
17873;BME280;36318;42.620;23.338;2023-02-13T11:27:22;94580.31;;;9.66;55.88
17873;BME280;36318;42.620;23.338;2023-02-13T11:29:52;94579.41;;;9.51;58.22
17873;BME280;36318;42.620;23.338;2023-02-13T11:32:21;94570.38;;;9.58;57.79
17873;BME280;36318;42.620;23.338;2023-02-13T11:34:49;94557.16;;;9.79;57.13
17873;BME280;36318;42.620;23.338;2023-02-13T11:37:17;94562.13;;;9.68;57.92
17873;BME280;36318;42.620;23.338;2023-02-13T11:39:45;94559.94;;;9.91;56.79
17873;BME280;36318;42.620;23.338;2023-02-13T11:42:12;94560.19;;;9.87;56.99
17873;BME280;36318;42.620;23.338;2023-02-13T11:44:40;94552.16;;;9.76;57.49
17873;BME280;36318;42.620;23.338;2023-02-13T11:47:07;94546.31;;;9.88;56.35
17873;BME280;36318;42.620;23.338;2023-02-13T11:49:35;94541.38;;;9.99;56.11
17873;BME280;36318;42.620;23.338;2023-02-13T11:52:05;94543.13;;;9.83;57.31
17873;BME280;36318;42.620;23.338;2023-02-13T11:54:33;94530.53;;;9.44;58.01
17873;BME280;36318;42.620;23.338;2023-02-13T11:57:01;94526.03;;;9.47;56.90
17873;BME280;36318;42.620;23.338;2023-02-13T11:59:30;94516.47;;;8.84;57.72
17873;BME280;36318;42.620;23.338;2023-02-13T12:02:01;94520.47;;;9.22;57.69
17873;BME280;36318;42.620;23.338;2023-02-13T12:04:27;94519.13;;;9.15;58.23
17873;BME280;36318;42.620;23.338;2023-02-13T12:06:58;94518.81;;;9.21;58.49
17873;BME280;36318;42.620;23.338;2023-02-13T12:09:26;94503.03;;;9.41;58.11
17873;BME280;36318;42.620;23.338;2023-02-13T12:11:54;94507.13;;;9.30;57.72
17873;BME280;36318;42.620;23.338;2023-02-13T12:14:23;94508.66;;;9.65;57.80
17873;BME280;36318;42.620;23.338;2023-02-13T12:16:51;94504.16;;;9.53;57.45
17873;BME280;36318;42.620;23.338;2023-02-13T12:19:21;94500.97;;;9.63;56.74
17873;BME280;36318;42.620;23.338;2023-02-13T12:21:57;94504.34;;;9.81;56.39
17873;BME280;36318;42.620;23.338;2023-02-13T12:24:31;94501.53;;;9.22;56.73
17873;BME280;36318;42.620;23.338;2023-02-13T12:27:06;94503.41;;;9.67;56.41
17873;BME280;36318;42.620;23.338;2023-02-13T12:32:19;94493.78;;;9.69;56.65
17873;BME280;36318;42.620;23.338;2023-02-13T12:34:50;94496.47;;;9.51;57.23
17873;BME280;36318;42.620;23.338;2023-02-13T12:37:23;94493.56;;;9.25;57.30
17873;BME280;36318;42.620;23.338;2023-02-13T12:40:01;94494.06;;;8.66;59.21
17873;BME280;36318;42.620;23.338;2023-02-13T12:42:39;94497.59;;;8.65;58.97
17873;BME280;36318;42.620;23.338;2023-02-13T12:45:14;94484.47;;;8.85;58.56
17873;BME280;36318;42.620;23.338;2023-02-13T12:47:46;94489.50;;;8.71;58.39
17873;BME280;36318;42.620;23.338;2023-02-13T12:53:02;94477.72;;;8.31;57.99
17873;BME280;36318;42.620;23.338;2023-02-13T12:58:27;94466.41;;;8.51;58.79
17873;BME280;36318;42.620;23.338;2023-02-13T13:01:01;94473.75;;;8.41;59.05
17873;BME280;36318;42.620;23.338;2023-02-13T13:03:34;94476.25;;;8.25;59.69
17873;BME280;36318;42.620;23.338;2023-02-13T13:09:05;94467.44;;;8.47;58.67
17873;BME280;36318;42.620;23.338;2023-02-13T13:11:50;94468.84;;;8.54;58.00
17873;BME280;36318;42.620;23.338;2023-02-13T13:14:25;94461.91;;;8.87;58.35